createdAt,value
2022-12-01T00:01:09.452Z,69.54
2022-12-01T00:03:36.169Z,69.16
2022-12-01T00:06:09.912Z,69.80
2022-12-01T00:08:36.609Z,69.61
2022-12-01T00:11:08.109Z,69.56
2022-12-01T00:13:35.636Z,69.86
2022-12-01T00:16:13.584Z,69.40
2022-12-01T00:18:40.242Z,69.43
2022-12-01T00:21:13.412Z,69.30
2022-12-01T00:23:42.560Z,69.84
2022-12-01T00:26:09.132Z,69.65
2022-12-01T00:28:35.711Z,69.23
2022-12-01T00:31:07.376Z,69.65
2022-12-01T00:33:33.956Z,70.00
2022-12-01T00:36:01.129Z,69.61
2022-12-01T00:38:28.605Z,69.01
2022-12-01T00:40:55.503Z,69.87
2022-12-01T00:43:22.317Z,70.24
2022-12-01T00:45:48.994Z,69.65
2022-12-01T00:48:15.889Z,69.29
2022-12-01T00:50:42.933Z,69.10
2022-12-01T00:53:09.553Z,69.26
2022-12-01T00:55:36.198Z,69.28
2022-12-01T00:58:02.841Z,69.71
2022-12-01T01:00:31.004Z,69.76
2022-12-01T01:02:57.701Z,69.74
2022-12-01T01:05:24.281Z,70.20
2022-12-01T01:07:50.984Z,70.35
2022-12-01T01:10:17.667Z,70.46
2022-12-01T01:12:44.230Z,69.58
2022-12-01T01:15:10.996Z,69.36
2022-12-01T01:17:37.548Z,69.18
2022-12-01T01:20:04.639Z,69.20
2022-12-01T01:22:31.216Z,69.90
2022-12-01T01:24:57.777Z,69.78
2022-12-01T01:27:24.385Z,69.58
2022-12-01T01:29:51.140Z,69.17
2022-12-01T01:32:17.849Z,68.76
2022-12-01T01:34:45.450Z,68.66
2022-12-01T01:37:12.030Z,68.81
2022-12-01T01:39:38.603Z,68.80
2022-12-01T01:42:05.171Z,68.66
2022-12-01T01:44:58.421Z,68.97
2022-12-01T01:47:30.698Z,69.32
2022-12-01T01:50:05.256Z,68.89
2022-12-01T01:52:33.636Z,68.62
2022-12-01T01:55:00.839Z,69.14
2022-12-01T01:57:30.169Z,69.50
2022-12-01T02:00:07.607Z,69.59
2022-12-01T02:02:40.651Z,69.25
2022-12-01T02:05:11.129Z,68.78
2022-12-01T02:07:42.073Z,69.58
2022-12-01T02:10:12.822Z,69.30
2022-12-01T02:13:07.201Z,69.24
2022-12-01T02:15:44.797Z,69.38
2022-12-01T02:18:23.565Z,69.33
2022-12-01T02:21:24.049Z,69.40
2022-12-01T02:24:47.895Z,69.01
2022-12-01T02:27:33.550Z,68.75
2022-12-01T02:30:14.239Z,68.74
2022-12-01T02:33:01.981Z,68.89
2022-12-01T02:35:58.117Z,68.78
2022-12-01T02:38:24.683Z,68.76
2022-12-01T02:41:13.688Z,68.62
2022-12-01T02:43:53.232Z,69.61
2022-12-01T02:46:31.241Z,69.51
2022-12-01T02:49:01.952Z,70.34
2022-12-01T02:51:34.129Z,69.97
2022-12-01T02:54:03.574Z,70.06
2022-12-01T02:56:30.186Z,70.31
2022-12-01T02:58:56.954Z,70.44
2022-12-01T03:01:42.587Z,70.42
2022-12-01T03:04:21.644Z,70.77
2022-12-01T03:06:54.438Z,70.53
2022-12-01T03:09:39.920Z,70.17
2022-12-01T03:12:21.987Z,70.21
2022-12-01T03:15:10.976Z,69.99
2022-12-01T03:17:45.857Z,70.82
2022-12-01T03:20:27.660Z,70.30
2022-12-01T03:23:01.537Z,69.93
2022-12-01T03:25:29.220Z,69.75
2022-12-01T03:28:21.489Z,69.16
2022-12-01T03:30:46.701Z,70.54
2022-12-01T03:33:22.356Z,69.94
2022-12-01T03:35:57.682Z,69.80
2022-12-01T03:38:27.049Z,70.63
2022-12-01T03:41:01.204Z,70.13
2022-12-01T03:43:33.315Z,70.31
2022-12-01T03:46:29.531Z,70.15
2022-12-01T03:48:56.594Z,70.07
2022-12-01T03:51:49.517Z,69.58
2022-12-01T03:54:28.940Z,69.89
2022-12-01T03:57:03.146Z,70.30
2022-12-01T03:59:32.302Z,69.76
2022-12-01T04:01:59.032Z,69.68
2022-12-01T04:04:25.618Z,69.77
2022-12-01T04:06:52.707Z,70.28
2022-12-01T04:09:19.318Z,70.30
2022-12-01T04:12:04.056Z,70.46
2022-12-01T04:14:30.660Z,70.31
2022-12-01T04:16:57.254Z,70.12
2022-12-01T04:19:23.817Z,69.64
2022-12-01T04:21:50.401Z,69.72
2022-12-01T04:24:17.125Z,69.89
2022-12-01T04:26:45.975Z,69.77
2022-12-01T04:29:13.695Z,69.73
2022-12-01T04:31:40.605Z,69.54
2022-12-01T04:34:07.579Z,69.37
2022-12-01T04:36:35.392Z,69.69
2022-12-01T04:39:02.896Z,69.62
2022-12-01T04:41:29.689Z,69.63
2022-12-01T04:43:56.550Z,69.55
2022-12-01T04:46:24.051Z,69.67
2022-12-01T04:48:50.996Z,69.81
2022-12-01T04:51:17.846Z,69.44
2022-12-01T04:53:44.610Z,69.61
2022-12-01T04:56:11.373Z,69.92
2022-12-01T04:58:38.334Z,69.63
2022-12-01T05:01:07.958Z,69.38
2022-12-01T05:03:42.020Z,69.42
2022-12-01T05:06:12.689Z,69.28
2022-12-01T05:08:39.606Z,69.83
2022-12-01T05:11:08.013Z,69.85
2022-12-01T05:13:37.156Z,69.83
2022-12-01T05:16:14.596Z,69.45
2022-12-01T05:18:41.728Z,69.62
2022-12-01T05:21:10.677Z,70.01
2022-12-01T05:23:38.892Z,70.55
2022-12-01T05:26:07.759Z,71.36
2022-12-01T05:28:34.909Z,70.72
2022-12-01T05:31:02.120Z,70.18
2022-12-01T05:33:29.462Z,70.03
2022-12-01T05:35:56.384Z,70.02
2022-12-01T05:38:23.021Z,69.71
2022-12-01T05:40:51.789Z,69.52
2022-12-01T05:43:21.604Z,68.92
2022-12-01T05:45:50.641Z,68.84
2022-12-01T05:48:18.005Z,68.77
2022-12-01T05:50:44.749Z,68.67
2022-12-01T05:53:12.865Z,68.81
2022-12-01T05:55:39.926Z,69.72
2022-12-01T05:58:06.557Z,69.66
2022-12-01T06:00:33.687Z,69.25
2022-12-01T06:03:00.250Z,69.17
2022-12-01T06:05:26.832Z,69.58
2022-12-01T06:07:54.717Z,69.83
2022-12-01T06:10:21.579Z,69.33
2022-12-01T06:12:48.179Z,69.51
2022-12-01T06:15:15.466Z,69.37
2022-12-01T06:17:42.250Z,69.14
2022-12-01T06:20:09.926Z,69.39
2022-12-01T06:22:36.703Z,70.00
2022-12-01T06:25:03.518Z,69.93
2022-12-01T06:27:30.094Z,69.31
2022-12-01T06:29:56.682Z,69.49
2022-12-01T06:32:23.298Z,69.58
2022-12-01T06:34:49.890Z,70.36
2022-12-01T06:37:16.910Z,70.31
2022-12-01T06:39:43.678Z,70.78
2022-12-01T06:42:10.504Z,70.88
2022-12-01T06:44:37.146Z,71.12
2022-12-01T06:47:04.025Z,70.26
2022-12-01T06:49:30.713Z,71.04
2022-12-01T06:51:57.299Z,71.02
2022-12-01T06:54:23.961Z,70.41
2022-12-01T06:56:50.678Z,70.45
2022-12-01T06:59:17.817Z,69.80
2022-12-01T07:01:44.974Z,70.76
2022-12-01T07:04:11.593Z,70.74
2022-12-01T07:06:38.199Z,70.49
2022-12-01T07:09:04.853Z,70.47
2022-12-01T07:11:32.403Z,69.94
2022-12-01T07:13:59.057Z,70.01
2022-12-01T07:16:25.739Z,69.47
2022-12-01T07:18:52.929Z,68.94
2022-12-01T07:21:19.528Z,69.18
2022-12-01T07:23:46.169Z,69.02
2022-12-01T07:26:17.858Z,69.52
2022-12-01T07:28:45.162Z,69.02
2022-12-01T07:31:19.581Z,69.11
2022-12-01T07:33:46.420Z,68.81
2022-12-01T07:36:13.860Z,68.64
2022-12-01T07:38:40.905Z,68.55
2022-12-01T07:41:13.952Z,68.58
2022-12-01T07:43:41.383Z,68.04
2022-12-01T07:46:22.382Z,68.40
2022-12-01T07:48:50.110Z,68.43
2022-12-01T07:51:17.419Z,68.65
2022-12-01T07:53:45.299Z,68.68
2022-12-01T07:56:12.504Z,68.66
2022-12-01T07:58:39.332Z,68.63
2022-12-01T08:01:10.751Z,68.90
2022-12-01T08:03:37.932Z,69.00
2022-12-01T08:06:06.027Z,68.75
2022-12-01T08:08:34.235Z,68.95
2022-12-01T08:11:03.422Z,68.60
2022-12-01T08:13:30.264Z,68.46
2022-12-01T08:15:57.297Z,68.11
2022-12-01T08:18:24.398Z,68.42
2022-12-01T08:20:51.746Z,68.90
2022-12-01T08:23:18.481Z,69.05
2022-12-01T08:25:45.118Z,69.10
2022-12-01T08:28:11.727Z,68.70
2022-12-01T08:30:38.346Z,68.63
2022-12-01T08:33:04.909Z,68.09
2022-12-01T08:35:32.775Z,68.18
2022-12-01T08:37:59.338Z,68.38
2022-12-01T08:40:25.986Z,69.19
2022-12-01T08:42:53.272Z,69.41
2022-12-01T08:45:20.441Z,69.64
2022-12-01T08:47:47.609Z,68.96
2022-12-01T08:50:14.269Z,69.21
2022-12-01T08:52:40.906Z,69.62
2022-12-01T08:55:08.431Z,69.30
2022-12-01T08:57:35.061Z,69.62
2022-12-01T09:00:01.910Z,69.18
2022-12-01T09:02:28.695Z,69.39
2022-12-01T09:04:55.598Z,69.29
2022-12-01T09:07:26.348Z,69.15
2022-12-01T09:09:53.551Z,69.26
2022-12-01T09:12:20.189Z,68.82
2022-12-01T09:14:49.887Z,68.74
2022-12-01T09:17:17.633Z,68.70
2022-12-01T09:19:44.738Z,69.35
2022-12-01T09:22:12.069Z,68.77
2022-12-01T09:24:38.838Z,69.24
2022-12-01T09:27:06.063Z,69.39
2022-12-01T09:29:32.942Z,69.50
2022-12-01T09:32:00.597Z,69.30
2022-12-01T09:34:29.072Z,68.79
2022-12-01T09:36:57.706Z,69.44
2022-12-01T09:39:25.025Z,70.56
2022-12-01T09:42:12.916Z,70.90
2022-12-01T09:44:48.787Z,71.20
2022-12-01T09:47:21.452Z,70.95
2022-12-01T09:50:02.501Z,70.59
2022-12-01T09:52:34.161Z,71.85
2022-12-01T09:55:01.660Z,72.77
2022-12-01T09:57:35.385Z,73.43
2022-12-01T10:00:12.656Z,73.06
2022-12-01T10:03:07.027Z,73.37
2022-12-01T10:06:10.446Z,74.06
2022-12-01T10:08:37.311Z,73.39
2022-12-01T10:11:20.491Z,72.48
2022-12-01T10:13:47.139Z,73.31
2022-12-01T10:16:19.145Z,73.67
2022-12-01T10:18:50.246Z,73.48
2022-12-01T10:21:39.930Z,73.92
2022-12-01T10:24:31.065Z,74.06
2022-12-01T10:27:12.850Z,73.72
2022-12-01T10:29:58.461Z,74.01
2022-12-01T10:32:56.285Z,73.70
2022-12-01T10:35:26.941Z,74.19
2022-12-01T10:38:18.417Z,73.94
2022-12-01T10:40:45.924Z,74.05
2022-12-01T10:43:12.570Z,73.65
2022-12-01T10:45:44.033Z,73.96
2022-12-01T10:48:15.344Z,74.17
2022-12-01T10:51:15.420Z,73.85
2022-12-01T10:53:42.012Z,73.85
2022-12-01T10:56:19.245Z,73.57
2022-12-01T10:58:50.360Z,73.54
2022-12-01T11:01:20.713Z,74.54
2022-12-01T11:03:57.814Z,74.37
2022-12-01T11:06:27.933Z,73.83
2022-12-01T11:09:03.554Z,73.60
2022-12-01T11:11:38.992Z,73.95
2022-12-01T11:14:18.471Z,74.21
2022-12-01T11:16:47.668Z,74.42
2022-12-01T11:19:14.305Z,74.88
2022-12-01T11:21:49.593Z,74.81
2022-12-01T11:24:28.957Z,74.74
2022-12-01T11:26:58.811Z,74.55
2022-12-01T11:29:25.346Z,74.49
2022-12-01T11:31:53.163Z,74.30
2022-12-01T11:34:29.907Z,74.51
2022-12-01T11:37:00.317Z,75.00
2022-12-01T11:39:35.686Z,74.55
2022-12-01T11:42:14.310Z,73.96
2022-12-01T11:44:51.799Z,73.78
2022-12-01T11:47:25.225Z,73.82
2022-12-01T11:49:59.717Z,73.78
2022-12-01T11:52:38.921Z,74.21
2022-12-01T11:55:11.524Z,74.30
2022-12-01T11:57:42.640Z,73.97
2022-12-01T12:00:24.050Z,73.98
2022-12-01T12:03:02.168Z,73.84
2022-12-01T12:05:45.531Z,73.75
2022-12-01T12:08:43.945Z,73.38
2022-12-01T12:11:22.733Z,73.16
2022-12-01T12:14:10.582Z,72.89
2022-12-01T12:16:55.627Z,72.91
2022-12-01T12:20:06.301Z,72.54
2022-12-01T12:22:42.377Z,72.17
2022-12-01T12:25:27.433Z,72.11
2022-12-01T12:28:15.617Z,72.27
2022-12-01T12:31:17.219Z,72.77
2022-12-01T12:33:59.443Z,72.82
2022-12-01T12:36:43.540Z,72.43
2022-12-01T12:39:37.839Z,71.64
2022-12-01T12:42:22.267Z,72.27
2022-12-01T12:45:26.071Z,71.88
2022-12-01T12:48:04.409Z,72.01
2022-12-01T12:50:49.078Z,70.98
2022-12-01T12:53:22.206Z,71.59
2022-12-01T12:55:51.157Z,70.79
2022-12-01T12:58:27.292Z,71.21
2022-12-01T13:01:13.811Z,71.12
2022-12-01T13:03:55.530Z,71.01
2022-12-01T13:06:46.074Z,70.54
2022-12-01T13:09:26.289Z,70.96
2022-12-01T13:12:04.794Z,70.42
2022-12-01T13:15:00.854Z,69.92
2022-12-01T13:17:36.598Z,69.46
2022-12-01T13:20:07.590Z,69.56
2022-12-01T13:22:35.898Z,69.17
2022-12-01T13:25:04.268Z,68.64
2022-12-01T13:27:41.025Z,68.94
2022-12-01T13:30:18.266Z,70.16
2022-12-01T13:32:46.097Z,69.60
2022-12-01T13:35:32.310Z,70.01
2022-12-01T13:38:20.310Z,69.58
2022-12-01T13:40:47.689Z,69.17
2022-12-01T13:43:20.820Z,68.50
2022-12-01T13:45:48.523Z,68.70
2022-12-01T13:48:51.764Z,69.39
2022-12-01T13:51:18.549Z,69.54
2022-12-01T13:53:57.404Z,69.78
2022-12-01T13:56:39.356Z,69.94
2022-12-01T13:59:27.305Z,69.46
2022-12-01T14:02:13.395Z,69.90
2022-12-01T14:04:40.015Z,69.84
2022-12-01T14:07:21.698Z,69.81
2022-12-01T14:09:51.890Z,69.87
2022-12-01T14:12:26.220Z,69.36
2022-12-01T14:14:58.256Z,69.29
2022-12-01T14:17:38.120Z,69.26
2022-12-01T14:20:13.109Z,68.73
2022-12-01T14:22:48.635Z,68.79
2022-12-01T14:25:21.297Z,68.85
2022-12-01T14:27:50.781Z,69.26
2022-12-01T14:30:48.149Z,69.76
2022-12-01T14:33:39.748Z,70.22
2022-12-01T14:36:25.741Z,69.28
2022-12-01T14:38:58.269Z,69.91
2022-12-01T14:41:31.360Z,69.45
2022-12-01T14:44:05.970Z,68.95
2022-12-01T14:46:43.126Z,68.59
2022-12-01T14:49:15.484Z,68.33
2022-12-01T14:51:46.122Z,68.14
2022-12-01T14:54:20.759Z,67.98
2022-12-01T14:56:51.303Z,67.98
2022-12-01T14:59:24.269Z,67.97
2022-12-01T15:01:56.048Z,68.25
2022-12-01T15:04:22.693Z,68.13
2022-12-01T15:06:56.086Z,68.26
2022-12-01T15:09:39.029Z,68.25
2022-12-01T15:12:09.281Z,68.04
2022-12-01T15:14:38.883Z,67.51
2022-12-01T15:17:08.876Z,67.79
2022-12-01T15:19:37.710Z,67.54
2022-12-01T15:22:15.631Z,67.83
2022-12-01T15:24:43.505Z,67.89
2022-12-01T15:27:30.331Z,68.04
2022-12-01T15:30:03.308Z,68.08
2022-12-01T15:32:32.080Z,68.05
2022-12-01T15:35:04.714Z,67.90
2022-12-01T15:37:42.590Z,68.26
2022-12-01T15:43:04.495Z,67.99
2022-12-01T15:45:42.868Z,68.15
2022-12-01T15:48:17.906Z,67.57
2022-12-01T15:50:58.821Z,68.00
2022-12-01T15:53:32.801Z,67.75
2022-12-01T15:56:03.206Z,67.94
2022-12-01T15:58:33.710Z,68.80
2022-12-01T16:01:01.860Z,68.81
2022-12-01T16:03:29.189Z,69.44
2022-12-01T16:05:57.048Z,68.98
2022-12-01T16:08:26.709Z,69.10
2022-12-01T16:11:18.558Z,69.05
2022-12-01T16:13:48.916Z,69.21
2022-12-01T16:16:33.227Z,68.95
2022-12-01T16:19:02.894Z,69.02
2022-12-01T16:21:42.281Z,70.12
2022-12-01T16:24:30.535Z,69.91
2022-12-01T16:27:16.510Z,69.32
2022-12-01T16:29:50.004Z,68.89
2022-12-01T16:32:40.623Z,68.88
2022-12-01T16:35:26.575Z,68.32
2022-12-01T16:37:54.478Z,68.27
2022-12-01T16:40:21.178Z,68.55
2022-12-01T16:42:49.959Z,68.67
2022-12-01T16:45:19.006Z,68.46
2022-12-01T16:47:48.030Z,68.43
2022-12-01T16:50:16.200Z,67.99
2022-12-01T16:52:44.650Z,68.88
2022-12-01T16:55:30.473Z,68.87
2022-12-01T16:57:57.166Z,68.60
2022-12-01T17:00:24.152Z,68.53
2022-12-01T17:02:51.081Z,68.21
2022-12-01T17:05:17.850Z,68.25
2022-12-01T17:07:44.532Z,68.20
2022-12-01T17:10:11.488Z,68.61
2022-12-01T17:12:38.309Z,68.42
2022-12-01T17:15:06.654Z,68.22
2022-12-01T17:17:33.355Z,67.87
2022-12-01T17:19:59.952Z,67.79
2022-12-01T17:22:26.530Z,67.73
2022-12-01T17:24:54.891Z,67.52
2022-12-01T17:27:22.833Z,67.75
2022-12-01T17:29:49.409Z,68.70
2022-12-01T17:32:15.994Z,68.80
2022-12-01T17:34:42.578Z,69.06
2022-12-01T17:37:09.175Z,68.75
2022-12-01T17:39:35.950Z,68.16
2022-12-01T17:42:02.583Z,69.20
2022-12-01T17:44:29.199Z,69.37
2022-12-01T17:46:55.850Z,68.76
2022-12-01T17:49:22.546Z,68.79
2022-12-01T17:51:49.180Z,68.85
2022-12-01T17:54:15.889Z,68.95
2022-12-01T17:56:42.824Z,69.74
2022-12-01T17:59:09.438Z,70.07
2022-12-01T18:01:36.190Z,69.66
2022-12-01T18:04:02.906Z,69.28
2022-12-01T18:06:29.481Z,69.60
2022-12-01T18:08:57.521Z,69.78
2022-12-01T18:11:24.293Z,70.27
2022-12-01T18:13:51.864Z,70.33
2022-12-01T18:16:21.279Z,70.76
2022-12-01T18:18:48.430Z,70.63
2022-12-01T18:21:17.893Z,71.02
2022-12-01T18:23:56.806Z,71.42
2022-12-01T18:26:24.422Z,71.75
2022-12-01T18:29:03.198Z,71.34
2022-12-01T18:31:30.446Z,72.26
2022-12-01T18:34:04.889Z,71.46
2022-12-01T18:36:35.021Z,71.23
2022-12-01T18:39:02.604Z,71.68
2022-12-01T18:41:29.562Z,72.00
2022-12-01T18:43:56.257Z,71.25
2022-12-01T18:46:23.075Z,71.92
2022-12-01T18:48:53.235Z,71.39
2022-12-01T18:51:21.053Z,71.42
2022-12-01T18:53:47.912Z,71.56
2022-12-01T18:56:15.628Z,71.55
2022-12-01T18:58:42.429Z,71.04
2022-12-01T19:01:27.090Z,70.98
2022-12-01T19:03:57.955Z,70.52
2022-12-01T19:06:25.595Z,70.71
2022-12-01T19:08:53.529Z,70.44
2022-12-01T19:11:20.756Z,70.31
2022-12-01T19:13:47.882Z,70.03
2022-12-01T19:16:19.508Z,71.21
2022-12-01T19:18:46.250Z,70.53
2022-12-01T19:21:17.491Z,70.58
2022-12-01T19:23:45.216Z,70.63
2022-12-01T19:26:14.923Z,70.25
2022-12-01T19:28:42.343Z,70.38
2022-12-01T19:31:11.530Z,70.01
2022-12-01T19:33:38.469Z,69.27
2022-12-01T19:36:09.980Z,69.58
2022-12-01T19:38:36.613Z,70.05
2022-12-01T19:41:03.773Z,70.03
2022-12-01T19:43:30.366Z,69.61
2022-12-01T19:45:57.063Z,69.02
2022-12-01T19:48:23.711Z,68.93
2022-12-01T19:50:50.288Z,69.27
2022-12-01T19:53:16.887Z,68.23
2022-12-01T19:55:43.513Z,67.76
2022-12-01T19:58:10.193Z,67.96
2022-12-01T20:00:36.801Z,67.88
2022-12-01T20:03:03.937Z,67.93
2022-12-01T20:05:32.512Z,67.85
2022-12-01T20:07:59.248Z,67.90
2022-12-01T20:10:25.927Z,67.72
2022-12-01T20:12:52.777Z,67.77
2022-12-01T20:15:19.521Z,67.50
2022-12-01T20:17:46.107Z,67.11
2022-12-01T20:20:13.208Z,67.47
2022-12-01T20:22:39.833Z,67.07
2022-12-01T20:25:06.825Z,67.03
2022-12-01T20:27:33.537Z,67.17
2022-12-01T20:30:00.138Z,67.40
2022-12-01T20:32:27.376Z,67.31
2022-12-01T20:34:53.992Z,68.02
2022-12-01T20:37:20.614Z,67.70
2022-12-01T20:39:47.499Z,67.40
2022-12-01T20:42:14.065Z,68.02
2022-12-01T20:44:40.821Z,68.03
2022-12-01T20:47:07.546Z,68.11
2022-12-01T20:49:34.390Z,67.77
2022-12-01T20:52:00.984Z,67.95
2022-12-01T20:54:29.139Z,67.16
2022-12-01T20:56:57.188Z,67.78
2022-12-01T20:59:23.859Z,68.04
2022-12-01T21:01:50.449Z,69.01
2022-12-01T21:04:17.684Z,69.24
2022-12-01T21:06:44.408Z,69.34
2022-12-01T21:09:12.441Z,70.20
2022-12-01T21:12:17.601Z,70.48
2022-12-01T21:15:25.473Z,71.11
2022-12-01T21:18:09.357Z,69.78
2022-12-01T21:20:40.660Z,69.80
2022-12-01T21:23:13.047Z,69.97
2022-12-01T21:25:41.415Z,70.28
2022-12-01T21:28:20.169Z,69.64
2022-12-01T21:30:48.224Z,69.58
2022-12-01T21:33:31.911Z,69.25
2022-12-01T21:36:00.870Z,69.78
2022-12-01T21:38:28.205Z,69.94
2022-12-01T21:40:54.891Z,70.31
2022-12-01T21:43:24.734Z,70.30
2022-12-01T21:46:02.084Z,69.99
2022-12-01T21:48:35.132Z,69.70
2022-12-01T21:51:07.181Z,69.13
2022-12-01T21:53:37.684Z,70.43
2022-12-01T21:56:04.406Z,70.80
2022-12-01T21:58:35.386Z,69.87
2022-12-01T22:01:03.206Z,69.77
2022-12-01T22:03:45.710Z,69.81
2022-12-01T22:06:30.763Z,69.90
2022-12-01T22:09:10.474Z,69.53
2022-12-01T22:11:37.269Z,69.23
2022-12-01T22:14:18.850Z,69.79
2022-12-01T22:16:56.349Z,70.20
2022-12-01T22:19:34.470Z,70.78
2022-12-01T22:22:01.039Z,70.49
2022-12-01T22:24:33.676Z,70.20
2022-12-01T22:27:11.831Z,69.62
2022-12-01T22:29:49.078Z,69.50
2022-12-01T22:32:15.625Z,69.00
2022-12-01T22:34:49.519Z,69.18
2022-12-01T22:37:20.830Z,69.97
2022-12-01T22:39:50.106Z,69.67
2022-12-01T22:42:27.964Z,69.90
2022-12-01T22:44:54.528Z,69.54
2022-12-01T22:47:21.113Z,69.38
2022-12-01T22:49:47.675Z,68.92
2022-12-01T22:52:28.508Z,69.25
2022-12-01T22:54:55.256Z,68.66
2022-12-01T22:57:35.137Z,68.61
2022-12-01T23:00:15.015Z,69.05
2022-12-01T23:02:41.748Z,69.72
2022-12-01T23:05:29.091Z,69.60
2022-12-01T23:07:57.145Z,69.59
2022-12-01T23:10:28.518Z,69.77
2022-12-01T23:13:00.365Z,70.53
2022-12-01T23:15:41.041Z,70.03
2022-12-01T23:18:24.107Z,70.23
2022-12-01T23:21:01.339Z,70.21
2022-12-01T23:23:35.701Z,70.49
2022-12-01T23:26:04.645Z,69.54
2022-12-01T23:28:31.270Z,69.22
2022-12-01T23:30:59.681Z,68.68
2022-12-01T23:33:29.242Z,69.09
2022-12-01T23:36:15.344Z,69.44
2022-12-01T23:38:51.773Z,69.02
2022-12-01T23:41:41.207Z,68.98
2022-12-01T23:44:29.361Z,68.64
2022-12-01T23:46:58.692Z,68.63
2022-12-01T23:49:29.860Z,68.29
2022-12-01T23:52:00.354Z,68.19
2022-12-01T23:54:31.209Z,68.72
2022-12-01T23:57:01.600Z,68.72
2022-12-01T23:59:30.089Z,68.02
